Time;durP1;ratioP1;P1;durP2;ratioP2;P2;SDS_P1;SDS_P2;PMS_P1;PMS_P2;Temp;Humidity;BMP_temperature;BMP_pressure;BME280_temperature;BME280_humidity;BME280_pressure;Samples;Min_cycle;Max_cycle;Signal;HPM_P1;HPM_P2
2023/04/23 00:02:00;;;;;;;3.35;1.75;;;;;;;;;;5012116;28;20076;-66
2023/04/23 00:04:27;;;;;;;2.35;1.60;;;;;;;;;;5024351;28;20478;-67
2023/04/23 00:06:53;;;;;;;2.78;1.77;;;;;;;;;;5015980;28;20117;-67
2023/04/23 00:09:21;;;;;;;2.60;1.60;;;;;;;;;;5007493;28;20062;-67
2023/04/23 00:11:47;;;;;;;3.50;1.80;;;;;;;;;;5007724;28;20113;-67
2023/04/23 00:14:13;;;;;;;2.65;1.40;;;;;;;;;;5011787;28;20479;-67
2023/04/23 00:16:39;;;;;;;5.50;1.80;;;;;;;;;;5021483;28;20051;-67
2023/04/23 00:19:05;;;;;;;2.78;1.80;;;;;;;;;;5007977;28;20021;-67
2023/04/23 00:21:30;;;;;;;2.30;1.80;;;;;;;;;;5007346;28;20462;-67
2023/04/23 00:23:56;;;;;;;2.25;1.67;;;;;;;;;;5016830;28;20029;-67
2023/04/23 00:26:21;;;;;;;3.10;1.77;;;;;;;;;;5012689;28;20026;-67
2023/04/23 00:28:47;;;;;;;2.58;1.63;;;;;;;;;;5019447;28;20017;-67
2023/04/23 00:31:12;;;;;;;3.55;1.83;;;;;;;;;;5011074;28;20034;-67
2023/04/23 00:33:38;;;;;;;4.25;2.45;;;;;;;;;;5017844;28;20040;-67
2023/04/23 00:36:03;;;;;;;3.42;1.80;;;;;;;;;;5012192;28;20029;-67
2023/04/23 00:38:29;;;;;;;2.60;1.60;;;;;;;;;;5024016;28;20524;-67
2023/04/23 00:40:54;;;;;;;1.92;1.50;;;;;;;;;;5013855;28;20021;-67
2023/04/23 00:43:20;;;;;;;2.30;1.67;;;;;;;;;;5009997;28;20041;-66
2023/04/23 00:45:46;;;;;;;3.35;1.58;;;;;;;;;;5007526;28;20034;-66
2023/04/23 00:48:12;;;;;;;2.95;1.88;;;;;;;;;;5016265;28;20029;-67
2023/04/23 00:50:38;;;;;;;2.63;1.83;;;;;;;;;;5018666;28;20052;-66
2023/04/23 00:53:03;;;;;;;2.60;1.80;;;;;;;;;;5008614;28;20104;-67
2023/04/23 00:55:29;;;;;;;2.92;1.77;;;;;;;;;;5008501;28;20172;-67
2023/04/23 00:57:54;;;;;;;4.40;1.75;;;;;;;;;;5013158;28;20028;-67
2023/04/23 01:00:20;;;;;;;1.90;1.35;;;;;;;;;;5024889;28;20017;-66
2023/04/23 01:02:48;;;;;;;4.53;1.60;;;;;;;;;;5007000;28;20048;-66
2023/04/23 01:05:16;;;;;;;2.55;2.08;;;;;;;;;;5010713;28;20033;-67
2023/04/23 01:07:43;;;;;;;2.28;1.70;;;;;;;;;;5011226;28;20025;-66
2023/04/23 01:10:09;;;;;;;5.60;1.80;;;;;;;;;;5017420;28;20593;-66
2023/04/23 01:12:35;;;;;;;2.95;1.50;;;;;;;;;;5014971;28;20026;-67
2023/04/23 01:15:01;;;;;;;3.83;2.10;;;;;;;;;;5008190;28;20029;-66
2023/04/23 01:17:26;;;;;;;2.58;1.75;;;;;;;;;;5011667;28;20022;-66
2023/04/23 01:19:52;;;;;;;3.25;1.75;;;;;;;;;;5011762;28;20084;-67
2023/04/23 01:22:18;;;;;;;3.17;1.92;;;;;;;;;;5027595;28;20048;-66
2023/04/23 01:24:44;;;;;;;2.20;1.60;;;;;;;;;;5013662;28;20061;-67
2023/04/23 01:27:10;;;;;;;3.13;1.80;;;;;;;;;;5011321;28;20026;-67
2023/04/23 01:29:36;;;;;;;4.13;2.22;;;;;;;;;;5011103;28;20705;-66
2023/04/23 01:32:02;;;;;;;2.72;1.75;;;;;;;;;;5016336;28;20083;-66
2023/04/23 01:34:30;;;;;;;5.20;2.15;;;;;;;;;;5023340;28;20022;-66
2023/04/23 01:36:57;;;;;;;2.67;1.95;;;;;;;;;;5015593;28;20021;-66
2023/04/23 01:39:22;;;;;;;6.40;2.30;;;;;;;;;;5021358;28;20041;-66
2023/04/23 01:41:48;;;;;;;3.42;2.10;;;;;;;;;;5017553;28;20022;-66
2023/04/23 01:44:13;;;;;;;2.70;1.73;;;;;;;;;;5025796;28;20025;-67
2023/04/23 01:46:39;;;;;;;2.10;1.40;;;;;;;;;;4999291;28;20044;-66
2023/04/23 01:49:04;;;;;;;2.70;1.85;;;;;;;;;;5010730;28;20042;-67
2023/04/23 01:51:29;;;;;;;2.50;1.92;;;;;;;;;;5014999;28;20041;-66
2023/04/23 01:53:55;;;;;;;3.38;1.98;;;;;;;;;;5019725;28;20053;-67
2023/04/23 01:56:27;;;;;;;3.40;1.90;;;;;;;;;;5021102;28;20470;-67
2023/04/23 01:58:53;;;;;;;3.20;2.05;;;;;;;;;;5011135;28;20030;-67
2023/04/23 02:01:18;;;;;;;3.80;2.10;;;;;;;;;;5012131;28;20040;-67
2023/04/23 02:03:44;;;;;;;3.90;2.10;;;;;;;;;;5012855;28;20116;-67
2023/04/23 02:06:10;;;;;;;3.22;2.25;;;;;;;;;;5026195;28;20028;-67
2023/04/23 02:08:35;;;;;;;2.47;1.92;;;;;;;;;;5011004;28;20394;-67
2023/04/23 02:11:01;;;;;;;3.42;2.00;;;;;;;;;;5010896;28;20506;-67
2023/04/23 02:13:26;;;;;;;3.20;2.15;;;;;;;;;;5010651;28;20022;-67
2023/04/23 02:15:52;;;;;;;3.13;2.05;;;;;;;;;;5014262;28;20029;-67
2023/04/23 02:18:17;;;;;;;2.75;1.85;;;;;;;;;;5011696;28;20071;-67
2023/04/23 02:20:42;;;;;;;4.63;2.20;;;;;;;;;;5012707;28;20022;-67
2023/04/23 02:23:08;;;;;;;4.13;2.38;;;;;;;;;;5009115;28;20129;-67
2023/04/23 02:25:37;;;;;;;3.38;2.08;;;;;;;;;;5011965;28;20025;-67
2023/04/23 02:28:05;;;;;;;3.47;2.08;;;;;;;;;;5020213;28;20032;-67
2023/04/23 02:30:32;;;;;;;2.15;1.50;;;;;;;;;;5015130;28;20784;-67
2023/04/23 02:32:57;;;;;;;2.88;2.00;;;;;;;;;;5009590;28;20065;-66
2023/04/23 02:35:23;;;;;;;3.92;2.58;;;;;;;;;;5009745;28;20057;-67
2023/04/23 02:37:49;;;;;;;2.33;1.77;;;;;;;;;;5018313;28;20024;-67
2023/04/23 02:40:15;;;;;;;3.60;2.30;;;;;;;;;;5018854;28;20057;-66
2023/04/23 02:42:40;;;;;;;3.00;2.25;;;;;;;;;;5009178;28;20100;-67
2023/04/23 02:45:06;;;;;;;5.07;2.25;;;;;;;;;;5018206;28;20037;-67
2023/04/23 02:47:31;;;;;;;3.05;2.30;;;;;;;;;;5011335;28;20037;-66
2023/04/23 02:49:58;;;;;;;3.42;2.50;;;;;;;;;;5021269;28;20025;-66
2023/04/23 02:52:23;;;;;;;4.43;2.30;;;;;;;;;;5016359;28;20044;-66
2023/04/23 02:54:49;;;;;;;5.47;2.42;;;;;;;;;;5010644;28;20014;-67
2023/04/23 02:57:15;;;;;;;3.17;2.25;;;;;;;;;;5010205;28;20040;-68
2023/04/23 02:59:41;;;;;;;3.55;2.60;;;;;;;;;;5022134;28;20037;-68
2023/04/23 03:02:06;;;;;;;3.92;2.40;;;;;;;;;;5020511;28;20034;-68
2023/04/23 03:04:32;;;;;;;4.38;2.33;;;;;;;;;;5012359;28;20037;-68
2023/04/23 03:06:57;;;;;;;4.47;2.40;;;;;;;;;;5010473;28;20438;-67
2023/04/23 03:09:22;;;;;;;3.20;2.30;;;;;;;;;;5009889;28;20037;-67
2023/04/23 03:11:48;;;;;;;3.85;2.40;;;;;;;;;;5022523;28;20021;-67
2023/04/23 03:14:13;;;;;;;4.32;2.30;;;;;;;;;;5014557;28;20702;-67
2023/04/23 03:16:38;;;;;;;3.47;2.20;;;;;;;;;;5009376;28;20059;-67
2023/04/23 03:19:04;;;;;;;3.97;2.63;;;;;;;;;;5008416;28;20481;-67
2023/04/23 03:21:30;;;;;;;3.10;2.38;;;;;;;;;;5015410;28;20025;-68
2023/04/23 03:23:55;;;;;;;3.28;2.30;;;;;;;;;;5027853;28;20067;-67
2023/04/23 03:26:21;;;;;;;3.47;2.40;;;;;;;;;;5010739;28;20029;-67
2023/04/23 03:28:46;;;;;;;3.38;2.20;;;;;;;;;;5010438;28;20033;-67
2023/04/23 03:31:11;;;;;;;3.40;2.13;;;;;;;;;;5009887;28;20037;-68
2023/04/23 03:33:37;;;;;;;4.18;2.80;;;;;;;;;;5024551;28;20644;-68
2023/04/23 03:36:02;;;;;;;3.83;2.60;;;;;;;;;;5015016;28;20030;-68
2023/04/23 03:38:28;;;;;;;3.85;2.50;;;;;;;;;;5010422;28;20034;-68
2023/04/23 03:40:54;;;;;;;3.28;2.47;;;;;;;;;;5008448;28;20029;-68
2023/04/23 03:43:19;;;;;;;4.43;2.67;;;;;;;;;;5010855;28;20040;-68
2023/04/23 03:45:44;;;;;;;4.07;2.65;;;;;;;;;;5020820;28;20613;-68
2023/04/23 03:48:10;;;;;;;5.30;2.50;;;;;;;;;;5007698;28;20394;-68
2023/04/23 03:50:39;;;;;;;3.97;2.45;;;;;;;;;;5012580;28;20026;-68
2023/04/23 03:53:04;;;;;;;3.50;2.50;;;;;;;;;;5004629;28;20092;-68
2023/04/23 03:55:30;;;;;;;3.47;2.35;;;;;;;;;;5020197;28;20052;-68
2023/04/23 03:57:55;;;;;;;3.75;2.38;;;;;;;;;;5016587;28;20075;-69
2023/04/23 04:00:21;;;;;;;3.03;1.95;;;;;;;;;;5011696;28;20024;-69
2023/04/23 04:02:46;;;;;;;2.78;1.95;;;;;;;;;;5011188;28;20393;-69
2023/04/23 04:05:12;;;;;;;3.58;2.03;;;;;;;;;;5011114;28;20056;-69
2023/04/23 04:07:37;;;;;;;3.28;2.03;;;;;;;;;;5020118;28;20045;-69
2023/04/23 04:10:05;;;;;;;3.90;2.22;;;;;;;;;;5010467;28;20026;-68
2023/04/23 04:12:31;;;;;;;3.33;2.67;;;;;;;;;;5005491;28;20048;-69
2023/04/23 04:14:56;;;;;;;3.47;2.28;;;;;;;;;;5005959;28;20026;-69
2023/04/23 04:17:22;;;;;;;3.00;2.25;;;;;;;;;;5012896;28;20053;-69
2023/04/23 04:19:47;;;;;;;4.22;2.45;;;;;;;;;;5012614;28;20079;-69
2023/04/23 04:22:15;;;;;;;2.75;2.20;;;;;;;;;;5008177;28;20080;-69
2023/04/23 04:24:40;;;;;;;4.32;2.38;;;;;;;;;;5007568;28;20018;-69
2023/04/23 04:27:06;;;;;;;3.35;2.10;;;;;;;;;;5008950;28;20026;-68
2023/04/23 04:29:32;;;;;;;3.58;2.40;;;;;;;;;;5014126;28;20021;-68
2023/04/23 04:31:58;;;;;;;3.65;2.30;;;;;;;;;;5006821;28;20056;-68
2023/04/23 04:34:23;;;;;;;3.38;2.42;;;;;;;;;;5008112;28;20117;-68
2023/04/23 04:36:50;;;;;;;3.88;2.42;;;;;;;;;;5010133;28;20052;-68
2023/04/23 04:39:16;;;;;;;3.65;2.53;;;;;;;;;;5011655;28;20390;-68
2023/04/23 04:41:42;;;;;;;2.58;1.90;;;;;;;;;;5008665;28;20028;-68
2023/04/23 04:44:08;;;;;;;4.15;1.67;;;;;;;;;;5007330;28;20579;-68
2023/04/23 04:46:39;;;;;;;3.35;2.00;;;;;;;;;;5006012;28;20139;-68
2023/04/23 04:49:11;;;;;;;;;;;;;;;;;;4990160;28;20018;-68
2023/04/23 04:51:38;;;;;;;3.35;2.25;;;;;;;;;;5007437;28;20014;-69
2023/04/23 04:54:03;;;;;;;3.75;2.53;;;;;;;;;;4987990;28;20398;-69
2023/04/23 04:56:29;;;;;;;3.42;1.88;;;;;;;;;;5005879;28;20033;-69
2023/04/23 04:58:55;;;;;;;3.70;2.03;;;;;;;;;;5006245;28;20391;-69
2023/04/23 05:01:23;;;;;;;3.15;2.00;;;;;;;;;;5005136;28;20084;-69
2023/04/23 05:03:49;;;;;;;2.08;1.42;;;;;;;;;;5010985;28;20025;-69
2023/04/23 05:06:14;;;;;;;3.20;1.98;;;;;;;;;;5009403;28;20108;-69
2023/04/23 05:08:41;;;;;;;2.40;1.75;;;;;;;;;;5009457;28;20033;-69
2023/04/23 05:11:07;;;;;;;2.97;1.77;;;;;;;;;;5011318;28;20427;-69
2023/04/23 05:13:32;;;;;;;2.67;2.00;;;;;;;;;;5012654;28;20040;-69
2023/04/23 05:15:58;;;;;;;3.78;2.85;;;;;;;;;;5006803;28;20475;-68
2023/04/23 05:18:24;;;;;;;3.58;2.78;;;;;;;;;;5004824;28;20018;-68
2023/04/23 05:20:50;;;;;;;4.47;3.17;;;;;;;;;;5007369;28;20029;-69
2023/04/23 05:23:15;;;;;;;5.18;3.17;;;;;;;;;;5010879;28;20037;-69
2023/04/23 05:25:40;;;;;;;5.43;3.10;;;;;;;;;;5012668;28;20026;-68
2023/04/23 05:28:07;;;;;;;5.07;3.50;;;;;;;;;;5006963;28;20028;-68
2023/04/23 05:30:33;;;;;;;4.55;3.40;;;;;;;;;;5006476;28;20030;-68
2023/04/23 05:32:59;;;;;;;5.95;3.92;;;;;;;;;;5003395;28;20032;-68
2023/04/23 05:35:24;;;;;;;6.43;4.55;;;;;;;;;;5005825;28;20035;-68
2023/04/23 05:37:50;;;;;;;6.78;4.80;;;;;;;;;;5007817;28;20120;-68
2023/04/23 05:40:15;;;;;;;8.55;4.28;;;;;;;;;;5003252;28;20057;-68
2023/04/23 05:42:41;;;;;;;5.38;4.30;;;;;;;;;;5003912;28;20064;-68
2023/04/23 05:45:07;;;;;;;6.88;4.75;;;;;;;;;;5006440;28;20389;-68
2023/04/23 05:47:32;;;;;;;5.88;4.43;;;;;;;;;;5018205;28;20628;-68
2023/04/23 05:49:57;;;;;;;6.50;4.43;;;;;;;;;;5009868;28;20151;-68
2023/04/23 05:52:23;;;;;;;5.80;4.63;;;;;;;;;;5006756;28;20041;-68
2023/04/23 05:54:49;;;;;;;5.97;4.45;;;;;;;;;;5005934;28;20022;-68
2023/04/23 05:57:15;;;;;;;6.40;4.00;;;;;;;;;;5008838;28;20042;-68
2023/04/23 05:59:40;;;;;;;6.20;4.22;;;;;;;;;;5013482;28;20390;-68
2023/04/23 06:02:08;;;;;;;7.85;3.90;;;;;;;;;;5007075;28;20060;-68
2023/04/23 06:04:33;;;;;;;6.13;4.65;;;;;;;;;;5007187;28;20034;-68
2023/04/23 06:06:58;;;;;;;7.65;5.40;;;;;;;;;;5010568;28;20028;-68
2023/04/23 06:09:24;;;;;;;8.38;5.50;;;;;;;;;;5027427;28;20079;-68
2023/04/23 06:11:51;;;;;;;7.63;4.85;;;;;;;;;;5009603;28;20029;-67
2023/04/23 06:14:16;;;;;;;8.18;5.72;;;;;;;;;;5009111;28;20058;-68
2023/04/23 06:16:42;;;;;;;7.97;5.93;;;;;;;;;;5013607;28;20060;-68
2023/04/23 06:19:07;;;;;;;7.53;6.32;;;;;;;;;;5011594;28;20773;-68
2023/04/23 06:21:32;;;;;;;8.40;6.00;;;;;;;;;;5016703;28;20048;-67
2023/04/23 06:23:58;;;;;;;9.75;6.57;;;;;;;;;;5007217;28;20088;-67
2023/04/23 06:26:23;;;;;;;9.93;7.05;;;;;;;;;;5013759;28;20033;-68
2023/04/23 06:28:49;;;;;;;10.73;7.35;;;;;;;;;;5015750;28;20079;-67
2023/04/23 06:31:14;;;;;;;10.98;7.90;;;;;;;;;;5022581;28;20389;-68
2023/04/23 06:33:40;;;;;;;6.95;4.68;;;;;;;;;;5006987;28;20538;-68
2023/04/23 06:36:08;;;;;;;10.57;6.90;;;;;;;;;;5006666;28;20025;-68
2023/04/23 06:38:33;;;;;;;11.63;7.45;;;;;;;;;;5006409;28;20062;-68
2023/04/23 06:40:59;;;;;;;13.52;7.75;;;;;;;;;;5017412;28;20021;-70
2023/04/23 06:43:24;;;;;;;10.35;6.63;;;;;;;;;;5018240;28;20018;-68
2023/04/23 06:45:49;;;;;;;11.32;7.07;;;;;;;;;;5006800;28;20444;-68
2023/04/23 06:48:15;;;;;;;10.38;7.00;;;;;;;;;;5006819;28;20095;-69
2023/04/23 06:50:41;;;;;;;10.48;6.47;;;;;;;;;;5007921;28;20061;-67
2023/04/23 06:53:06;;;;;;;5.93;4.07;;;;;;;;;;5021992;28;20022;-67
2023/04/23 06:55:32;;;;;;;7.70;5.40;;;;;;;;;;5010393;28;20018;-68
2023/04/23 06:57:57;;;;;;;9.57;5.95;;;;;;;;;;5008507;28;20687;-67
2023/04/23 07:00:23;;;;;;;8.52;5.60;;;;;;;;;;5008576;28;20036;-67
2023/04/23 07:02:49;;;;;;;6.53;4.78;;;;;;;;;;5016927;28;20022;-67
2023/04/23 07:05:16;;;;;;;6.85;5.07;;;;;;;;;;5012106;28;20033;-67
2023/04/23 07:07:42;;;;;;;7.45;5.38;;;;;;;;;;5007964;28;20482;-67
2023/04/23 07:10:08;;;;;;;6.72;4.63;;;;;;;;;;5009968;28;20025;-67
2023/04/23 07:12:35;;;;;;;7.03;4.68;;;;;;;;;;5007636;28;20029;-67
2023/04/23 07:15:00;;;;;;;6.65;4.57;;;;;;;;;;5018190;28;20094;-67
2023/04/23 07:17:26;;;;;;;5.55;4.00;;;;;;;;;;5008396;28;20569;-70
2023/04/23 07:19:51;;;;;;;6.35;4.63;;;;;;;;;;5007336;28;20028;-70
2023/04/23 07:22:17;;;;;;;5.20;4.05;;;;;;;;;;5009524;28;20425;-67
2023/04/23 07:24:42;;;;;;;7.43;4.47;;;;;;;;;;5009623;28;20021;-69
2023/04/23 07:27:07;;;;;;;6.05;4.07;;;;;;;;;;5012858;28;20363;-68
2023/04/23 07:29:33;;;;;;;7.05;4.72;;;;;;;;;;5008215;28;20029;-69
2023/04/23 07:31:58;;;;;;;5.00;3.72;;;;;;;;;;5007952;28;20034;-69
2023/04/23 07:34:24;;;;;;;4.47;3.60;;;;;;;;;;5007600;28;20036;-69
2023/04/23 07:36:50;;;;;;;2.85;2.05;;;;;;;;;;5021191;28;20025;-69
2023/04/23 07:39:16;;;;;;;14.80;4.00;;;;;;;;;;5013674;28;20029;-69
2023/04/23 07:41:42;;;;;;;5.30;3.90;;;;;;;;;;5012595;28;20489;-69
2023/04/23 07:44:07;;;;;;;6.25;3.42;;;;;;;;;;5007755;28;20018;-69
2023/04/23 07:46:32;;;;;;;5.22;3.50;;;;;;;;;;5015501;28;20029;-69
2023/04/23 07:48:58;;;;;;;4.90;3.15;;;;;;;;;;5014866;28;20022;-69
2023/04/23 07:51:25;;;;;;;4.95;3.38;;;;;;;;;;5008320;28;20021;-69
2023/04/23 07:53:53;;;;;;;3.90;2.55;;;;;;;;;;5010699;28;20116;-69
2023/04/23 07:56:20;;;;;;;2.97;2.20;;;;;;;;;;5006737;28;20096;-68
2023/04/23 07:58:45;;;;;;;3.42;2.58;;;;;;;;;;5017567;28;20029;-68
2023/04/23 08:01:11;;;;;;;3.47;2.30;;;;;;;;;;5012723;28;20087;-68
2023/04/23 08:03:36;;;;;;;3.28;2.20;;;;;;;;;;5010797;28;20483;-68
2023/04/23 08:06:03;;;;;;;3.80;2.50;;;;;;;;;;5001742;28;20133;-68
2023/04/23 08:08:29;;;;;;;3.35;2.05;;;;;;;;;;5006700;28;20018;-68
2023/04/23 08:10:54;;;;;;;1.95;1.15;;;;;;;;;;5012317;28;20036;-67
2023/04/23 08:13:20;;;;;;;3.53;1.92;;;;;;;;;;4988292;28;20383;-68
2023/04/23 08:15:45;;;;;;;2.50;1.40;;;;;;;;;;5007254;28;20503;-67
2023/04/23 08:18:10;;;;;;;1.85;1.40;;;;;;;;;;5015775;28;20021;-67
2023/04/23 08:20:36;;;;;;;2.03;1.50;;;;;;;;;;5019044;28;20029;-67
2023/04/23 08:23:02;;;;;;;2.05;1.60;;;;;;;;;;5018492;28;20090;-67
2023/04/23 08:25:28;;;;;;;2.90;1.67;;;;;;;;;;5006816;28;20025;-67
2023/04/23 08:27:53;;;;;;;1.67;1.30;;;;;;;;;;5006727;28;20032;-67
2023/04/23 08:30:19;;;;;;;1.30;1.10;;;;;;;;;;5014264;28;20033;-68
2023/04/23 08:32:48;;;;;;;2.03;1.30;;;;;;;;;;5016371;28;20018;-68
2023/04/23 08:35:13;;;;;;;1.80;1.52;;;;;;;;;;5003312;28;20820;-68
2023/04/23 08:37:39;;;;;;;2.03;1.38;;;;;;;;;;5009112;28;20576;-68
2023/04/23 08:40:06;;;;;;;1.98;1.58;;;;;;;;;;5008037;28;20032;-67
2023/04/23 08:42:54;;;;;;;1.95;1.42;;;;;;;;;;5012136;28;20025;-68
2023/04/23 08:45:20;;;;;;;2.42;1.30;;;;;;;;;;5012391;28;20095;-68
2023/04/23 08:47:46;;;;;;;1.85;1.33;;;;;;;;;;5002613;28;20030;-67
2023/04/23 08:50:16;;;;;;;2.42;1.38;;;;;;;;;;5010478;28;20453;-68
2023/04/23 08:52:55;;;;;;;1.77;1.40;;;;;;;;;;5012757;28;20490;-67
2023/04/23 08:55:22;;;;;;;3.03;2.15;;;;;;;;;;5014470;28;20656;-67
2023/04/23 08:57:48;;;;;;;1.33;1.17;;;;;;;;;;5008125;28;20037;-67
2023/04/23 09:00:16;;;;;;;2.30;1.50;;;;;;;;;;5008663;28;20025;-68
2023/04/23 09:02:44;;;;;;;2.63;1.33;;;;;;;;;;5008346;28;20052;-68
2023/04/23 09:05:09;;;;;;;2.15;1.75;;;;;;;;;;5012637;28;20037;-67
2023/04/23 09:07:35;;;;;;;2.05;1.58;;;;;;;;;;5007673;28;20021;-68
2023/04/23 09:10:02;;;;;;;1.63;1.30;;;;;;;;;;5006252;28;20073;-67
2023/04/23 09:12:28;;;;;;;1.73;1.35;;;;;;;;;;5004995;28;20719;-68
2023/04/23 09:14:54;;;;;;;2.88;1.60;;;;;;;;;;5012624;28;20021;-68
2023/04/23 09:17:21;;;;;;;1.85;1.23;;;;;;;;;;5005980;28;20044;-68
2023/04/23 09:19:49;;;;;;;1.77;1.35;;;;;;;;;;5002241;28;20033;-69
2023/04/23 09:22:14;;;;;;;1.95;1.23;;;;;;;;;;5008603;28;21097;-67
2023/04/23 09:24:42;;;;;;;1.65;1.33;;;;;;;;;;5006093;28;20031;-67
2023/04/23 09:27:08;;;;;;;1.48;1.20;;;;;;;;;;5005207;28;20036;-68
2023/04/23 09:29:34;;;;;;;1.45;1.23;;;;;;;;;;5010632;28;20029;-68
2023/04/23 09:32:08;;;;;;;1.85;1.30;;;;;;;;;;5005426;28;20022;-67
2023/04/23 09:34:37;;;;;;;3.08;1.52;;;;;;;;;;5009508;28;20045;-68
2023/04/23 09:37:05;;;;;;;2.58;1.60;;;;;;;;;;5010097;28;20512;-70
2023/04/23 09:39:33;;;;;;;1.95;1.17;;;;;;;;;;5017125;28;20561;-69
2023/04/23 09:42:03;;;;;;;2.28;1.60;;;;;;;;;;5011872;28;20033;-68
2023/04/23 09:44:31;;;;;;;1.83;1.20;;;;;;;;;;5007867;28;20160;-69
2023/04/23 09:47:06;;;;;;;2.78;1.58;;;;;;;;;;5006803;28;20017;-68
2023/04/23 09:49:31;;;;;;;2.00;1.40;;;;;;;;;;5009133;28;20559;-69
2023/04/23 09:52:06;;;;;;;1.25;1.10;;;;;;;;;;5006609;28;20022;-69
2023/04/23 09:54:31;;;;;;;3.50;1.60;;;;;;;;;;5007964;28;20033;-68
2023/04/23 09:57:00;;;;;;;3.03;1.75;;;;;;;;;;5005076;28;20038;-69
2023/04/23 09:59:29;;;;;;;2.80;2.00;;;;;;;;;;5010789;28;20387;-70
2023/04/23 10:01:55;;;;;;;2.17;1.60;;;;;;;;;;5006146;28;20022;-69
2023/04/23 10:04:23;;;;;;;2.17;1.92;;;;;;;;;;5006622;28;20083;-68
2023/04/23 10:07:00;;;;;;;2.30;1.65;;;;;;;;;;5003172;28;20029;-68
2023/04/23 10:09:27;;;;;;;2.17;1.58;;;;;;;;;;5009097;28;20505;-70
2023/04/23 10:12:01;;;;;;;3.40;1.98;;;;;;;;;;5008014;28;20037;-69
2023/04/23 10:14:27;;;;;;;2.40;1.17;;;;;;;;;;5006661;28;20097;-70
2023/04/23 10:17:03;;;;;;;2.47;1.52;;;;;;;;;;5004045;28;20055;-69
2023/04/23 10:19:30;;;;;;;4.20;1.85;;;;;;;;;;5009402;28;20017;-68
2023/04/23 10:22:04;;;;;;;2.22;1.60;;;;;;;;;;5009151;28;20025;-69
2023/04/23 10:24:32;;;;;;;2.28;1.55;;;;;;;;;;5009811;28;20034;-68
2023/04/23 10:27:03;;;;;;;2.85;1.70;;;;;;;;;;5008902;28;20030;-68
2023/04/23 10:29:32;;;;;;;2.40;1.25;;;;;;;;;;4989342;28;20030;-68
2023/04/23 10:32:03;;;;;;;2.20;1.60;;;;;;;;;;5009934;28;20041;-68
2023/04/23 10:34:30;;;;;;;8.83;4.37;;;;;;;;;;5008770;28;20516;-69
2023/04/23 10:36:58;;;;;;;2.42;1.27;;;;;;;;;;5003608;28;20052;-69
2023/04/23 10:39:26;;;;;;;2.63;1.58;;;;;;;;;;4991439;28;20076;-69
2023/04/23 10:41:53;;;;;;;2.50;1.80;;;;;;;;;;5010091;28;20033;-69
2023/04/23 10:44:20;;;;;;;2.08;1.10;;;;;;;;;;5014574;28;20116;-69
2023/04/23 10:46:57;;;;;;;2.05;1.52;;;;;;;;;;5000478;28;20029;-68
2023/04/23 10:49:24;;;;;;;2.03;1.40;;;;;;;;;;5009794;28;20034;-69
2023/04/23 10:52:02;;;;;;;2.83;2.15;;;;;;;;;;5007149;28;20033;-68
2023/04/23 10:54:30;;;;;;;2.17;1.50;;;;;;;;;;5011997;28;20026;-68
2023/04/23 10:57:05;;;;;;;1.83;1.40;;;;;;;;;;5002467;28;20037;-68
2023/04/23 10:59:32;;;;;;;1.85;1.23;;;;;;;;;;5007059;28;20028;-69
2023/04/23 11:02:06;;;;;;;2.60;1.60;;;;;;;;;;5008281;28;20029;-69
2023/04/23 11:04:33;;;;;;;1.95;1.40;;;;;;;;;;5003216;28;20032;-69
2023/04/23 11:07:09;;;;;;;2.03;1.55;;;;;;;;;;5009193;28;20457;-69
2023/04/23 11:09:47;;;;;;;2.92;1.55;;;;;;;;;;5010650;28;20030;-69
2023/04/23 11:12:31;;;;;;;2.72;1.48;;;;;;;;;;5012245;28;20034;-69
2023/04/23 11:14:58;;;;;;;2.95;1.67;;;;;;;;;;5006148;28;20029;-69
2023/04/23 11:17:43;;;;;;;2.45;1.52;;;;;;;;;;5009736;28;20018;-68
2023/04/23 11:20:17;;;;;;;1.38;1.25;;;;;;;;;;5004004;28;20018;-69
2023/04/23 11:22:44;;;;;;;1.98;1.45;;;;;;;;;;5007833;28;20100;-71
2023/04/23 11:25:18;;;;;;;2.70;1.90;;;;;;;;;;5002488;28;20049;-68
2023/04/23 11:27:44;;;;;;;2.05;1.40;;;;;;;;;;5005011;28;20141;-69
2023/04/23 11:30:12;;;;;;;2.33;1.40;;;;;;;;;;5005917;28;20103;-68
2023/04/23 11:32:39;;;;;;;2.28;1.50;;;;;;;;;;5010648;28;20657;-69
2023/04/23 11:35:06;;;;;;;1.90;1.70;;;;;;;;;;5005140;28;20026;-68
2023/04/23 11:37:32;;;;;;;2.30;1.40;;;;;;;;;;5008053;28;20086;-68
2023/04/23 11:40:05;;;;;;;2.65;1.67;;;;;;;;;;5015511;28;20033;-68
2023/04/23 11:42:30;;;;;;;1.73;1.13;;;;;;;;;;5008871;28;20056;-68
2023/04/23 11:44:56;;;;;;;3.55;1.50;;;;;;;;;;5006119;28;20038;-69
2023/04/23 11:47:24;;;;;;;1.58;1.20;;;;;;;;;;5004419;28;20026;-68
2023/04/23 11:49:50;;;;;;;2.22;1.33;;;;;;;;;;5008813;28;20030;-69
2023/04/23 11:52:15;;;;;;;1.80;1.25;;;;;;;;;;5005039;28;20041;-69
2023/04/23 11:54:41;;;;;;;2.40;1.48;;;;;;;;;;5005289;28;20101;-68
2023/04/23 11:57:09;;;;;;;2.40;1.55;;;;;;;;;;5000377;28;20061;-68
2023/04/23 11:59:34;;;;;;;3.30;1.80;;;;;;;;;;5004417;28;20030;-69
2023/04/23 12:01:59;;;;;;;4.80;2.15;;;;;;;;;;5009252;28;20030;-69
2023/04/23 12:04:27;;;;;;;5.05;2.03;;;;;;;;;;5003903;28;20037;-69
2023/04/23 12:06:55;;;;;;;1.95;1.48;;;;;;;;;;4998136;28;20029;-70
2023/04/23 12:09:22;;;;;;;2.33;1.45;;;;;;;;;;5002575;28;20018;-69
2023/04/23 12:11:51;;;;;;;1.95;1.52;;;;;;;;;;5007443;28;20030;-69
2023/04/23 12:14:20;;;;;;;2.22;1.27;;;;;;;;;;5005068;28;20029;-69
2023/04/23 12:16:50;;;;;;;3.33;1.92;;;;;;;;;;5003421;28;20056;-69
2023/04/23 12:19:24;;;;;;;1.77;1.38;;;;;;;;;;5005837;28;20033;-69
2023/04/23 12:21:59;;;;;;;2.17;1.52;;;;;;;;;;5010545;28;20037;-68
2023/04/23 12:24:26;;;;;;;2.10;1.30;;;;;;;;;;5001695;28;20037;-70
2023/04/23 12:26:53;;;;;;;2.47;2.10;;;;;;;;;;4998833;28;20099;-69
2023/04/23 12:29:20;;;;;;;2.58;1.75;;;;;;;;;;5005184;28;20041;-69
2023/04/23 12:31:46;;;;;;;3.00;1.85;;;;;;;;;;5004163;28;20108;-68
2023/04/23 12:34:15;;;;;;;2.55;1.40;;;;;;;;;;5005177;28;20393;-69
2023/04/23 12:36:44;;;;;;;2.47;1.50;;;;;;;;;;4983913;28;20029;-69
2023/04/23 12:39:25;;;;;;;2.38;1.50;;;;;;;;;;5000819;28;20056;-70
2023/04/23 12:42:06;;;;;;;2.72;1.58;;;;;;;;;;5004824;28;20049;-69
2023/04/23 12:44:39;;;;;;;2.80;1.60;;;;;;;;;;5005403;28;20057;-69
2023/04/23 12:47:07;;;;;;;1.58;1.05;;;;;;;;;;4986880;28;20026;-69
2023/04/23 12:49:34;;;;;;;5.88;3.15;;;;;;;;;;5004455;28;20034;-68
2023/04/23 12:52:00;;;;;;;3.08;1.92;;;;;;;;;;4986615;28;20030;-70
2023/04/23 12:54:32;;;;;;;4.40;1.85;;;;;;;;;;5004400;28;20048;-68
2023/04/23 12:56:58;;;;;;;2.55;1.60;;;;;;;;;;5001975;28;20122;-69
2023/04/23 12:59:25;;;;;;;1.98;1.17;;;;;;;;;;5003231;28;20030;-68
2023/04/23 13:01:50;;;;;;;4.68;2.20;;;;;;;;;;5002417;28;20078;-68
2023/04/23 13:04:16;;;;;;;18.45;10.50;;;;;;;;;;5005913;28;20057;-69
2023/04/23 13:06:41;;;;;;;1.80;1.42;;;;;;;;;;4969130;28;20047;-68
2023/04/23 13:09:09;;;;;;;2.40;1.23;;;;;;;;;;4969542;28;20895;-69
2023/04/23 13:11:37;;;;;;;3.38;1.83;;;;;;;;;;4970688;28;20023;-69
2023/04/23 13:14:03;;;;;;;3.67;2.00;;;;;;;;;;4967603;28;20831;-69
2023/04/23 13:16:29;;;;;;;1.77;1.27;;;;;;;;;;4971839;28;20035;-69
2023/04/23 13:18:54;;;;;;;2.97;1.20;;;;;;;;;;4976844;28;20031;-70
2023/04/23 13:21:20;;;;;;;3.70;1.40;;;;;;;;;;4973356;28;20033;-69
2023/04/23 13:23:45;;;;;;;4.93;2.92;;;;;;;;;;4971394;28;20353;-68
2023/04/23 13:26:11;;;;;;;4.35;2.60;;;;;;;;;;4966691;28;20035;-69
2023/04/23 13:28:36;;;;;;;2.75;1.60;;;;;;;;;;4974254;28;20030;-69
2023/04/23 13:31:02;;;;;;;2.03;1.40;;;;;;;;;;4977108;28;20035;-70
2023/04/23 13:33:28;;;;;;;1.45;1.10;;;;;;;;;;4970135;28;20429;-69
2023/04/23 13:35:55;;;;;;;7.60;3.20;;;;;;;;;;4969526;28;20035;-69
2023/04/23 13:38:22;;;;;;;2.22;1.52;;;;;;;;;;4973698;28;20033;-69
2023/04/23 13:40:47;;;;;;;2.78;1.77;;;;;;;;;;4974906;28;20023;-69
2023/04/23 13:43:12;;;;;;;2.28;1.65;;;;;;;;;;4967303;28;20034;-69
2023/04/23 13:45:38;;;;;;;1.92;1.30;;;;;;;;;;4967275;28;20093;-70
2023/04/23 13:48:03;;;;;;;3.15;2.35;;;;;;;;;;4970403;28;20027;-69
2023/04/23 13:50:29;;;;;;;2.90;1.50;;;;;;;;;;4971257;28;20034;-69
2023/04/23 13:52:55;;;;;;;1.55;1.30;;;;;;;;;;4968892;28;20022;-70
2023/04/23 13:55:20;;;;;;;3.47;1.40;;;;;;;;;;4969830;28;20109;-70
2023/04/23 13:57:46;;;;;;;2.58;1.55;;;;;;;;;;4971038;28;20027;-69
2023/04/23 14:00:12;;;;;;;2.40;1.73;;;;;;;;;;4969892;28;20027;-68
2023/04/23 14:02:37;;;;;;;3.85;2.15;;;;;;;;;;4970858;28;20029;-69
2023/04/23 14:05:05;;;;;;;4.82;1.70;;;;;;;;;;4968874;28;20039;-70
2023/04/23 14:07:31;;;;;;;1.27;1.17;;;;;;;;;;4969317;28;20039;-69
2023/04/23 14:09:56;;;;;;;2.35;1.50;;;;;;;;;;4968062;28;20030;-70
2023/04/23 14:12:22;;;;;;;3.95;1.45;;;;;;;;;;4970933;28;20026;-69
2023/04/23 14:14:49;;;;;;;1.42;0.95;;;;;;;;;;4969046;28;20030;-69
2023/04/23 14:17:15;;;;;;;1.70;1.25;;;;;;;;;;4946311;28;20057;-70
2023/04/23 14:19:40;;;;;;;2.53;1.45;;;;;;;;;;4971683;28;20113;-70
2023/04/23 14:22:06;;;;;;;1.50;1.13;;;;;;;;;;4964995;28;20039;-69
2023/04/23 14:24:43;;;;;;;2.25;1.50;;;;;;;;;;4970017;28;20027;-69
2023/04/23 14:27:08;;;;;;;1.52;1.38;;;;;;;;;;4967115;28;20027;-68
2023/04/23 14:29:51;;;;;;;1.90;1.30;;;;;;;;;;4971807;28;20031;-69
2023/04/23 14:32:16;;;;;;;2.10;1.23;;;;;;;;;;4968633;28;20088;-69
2023/04/23 14:34:43;;;;;;;1.55;1.10;;;;;;;;;;4965880;28;20098;-69
2023/04/23 14:37:10;;;;;;;2.17;1.60;;;;;;;;;;4951260;28;20586;-68
2023/04/23 14:39:35;;;;;;;1.55;1.20;;;;;;;;;;4968715;28;20027;-69
2023/04/23 14:42:01;;;;;;;2.97;1.67;;;;;;;;;;4973185;28;20077;-69